Time;durP1;ratioP1;P1;durP2;ratioP2;P2;SDS_P1;SDS_P2;PMS_P1;PMS_P2;Temp;Humidity;BMP_temperature;BMP_pressure;BME280_temperature;BME280_humidity;BME280_pressure;Samples;Min_cycle;Max_cycle;Signal;HPM_P1;HPM_P2
2021/04/21 00:02:19;;;;;;;15.00;12.28;;;;;;;6.31;73.21;99494.38;1797754;79;21647;-71
2021/04/21 00:04:49;;;;;;;13.93;11.40;;;;;;;6.29;73.39;99498.44;1773258;79;21048;-70
2021/04/21 00:07:18;;;;;;;13.53;11.75;;;;;;;6.29;73.43;99500.22;1797504;79;22639;-71
2021/04/21 00:09:46;;;;;;;14.05;11.57;;;;;;;6.24;73.67;99506.27;1806545;79;21087;-72
2021/04/21 00:12:16;;;;;;;13.75;11.85;;;;;;;6.20;73.72;99501.75;1803384;79;21091;-72
2021/04/21 00:14:46;;;;;;;15.08;12.35;;;;;;;6.20;73.72;99501.75;1815065;79;21497;-72
2021/04/21 00:17:13;;;;;;;13.30;10.70;;;;;;;6.19;73.78;99505.80;1775027;80;21102;-71
2021/04/21 00:19:41;;;;;;;16.95;11.95;;;;;;;6.20;73.87;99506.16;1788765;80;21081;-71
2021/04/21 00:22:09;;;;;;;14.93;12.05;;;;;;;6.19;73.86;99507.11;1798584;79;21040;-71
2021/04/21 00:24:38;;;;;;;14.75;12.53;;;;;;;6.17;73.87;99504.58;1805575;79;22061;-71
2021/04/21 00:27:07;;;;;;;14.85;11.90;;;;;;;6.18;73.84;99505.45;1813035;79;21199;-71
2021/04/21 00:29:40;;;;;;;13.75;11.95;;;;;;;6.15;73.94;99496.00;1787804;79;21155;-71
2021/04/21 00:32:08;;;;;;;13.75;11.40;;;;;;;6.15;73.94;99509.59;1806618;79;21100;-71
2021/04/21 00:34:37;;;;;;;15.10;12.13;;;;;;;6.15;73.91;99508.27;1757530;80;20959;-71
2021/04/21 00:37:04;;;;;;;16.67;12.15;;;;;;;6.13;73.85;99514.12;1786110;79;22126;-71
2021/04/21 00:39:32;;;;;;;13.48;11.30;;;;;;;6.11;73.80;99506.84;1787587;79;21593;-72
2021/04/21 00:42:23;;;;;;;15.53;12.10;;;;;;;6.11;73.76;99519.95;1795550;78;21083;-71
2021/04/21 00:45:09;;;;;;;15.80;12.80;;;;;;;6.04;73.74;99522.19;1763724;79;21158;-71
2021/04/21 00:48:06;;;;;;;16.05;12.35;;;;;;;5.97;73.72;99523.11;1814621;79;21047;-71
2021/04/21 00:50:57;;;;;;;14.28;12.18;;;;;;;5.92;73.71;99527.03;1804263;79;22080;-71
2021/04/21 00:53:45;;;;;;;14.58;12.10;;;;;;;5.88;73.69;99528.99;1814181;79;21119;-71
2021/04/21 00:56:32;;;;;;;15.50;12.50;;;;;;;5.83;73.64;99523.74;1814916;79;21177;-71
2021/04/21 00:59:07;;;;;;;19.60;14.78;;;;;;;5.77;73.56;99526.33;1805902;78;21475;-71
2021/04/21 01:01:36;;;;;;;21.12;14.73;;;;;;;5.66;73.39;99534.97;1806057;78;21027;-71
2021/04/21 01:04:04;;;;;;;18.20;14.93;;;;;;;5.55;73.23;99528.84;1782463;78;22070;-71
2021/04/21 01:06:38;;;;;;;18.70;14.33;;;;;;;5.44;73.23;99533.55;1794582;78;21111;-71
2021/04/21 01:09:07;;;;;;;17.70;14.73;;;;;;;5.36;73.24;99531.94;1817828;78;21107;-71
2021/04/21 01:11:45;;;;;;;20.17;15.13;;;;;;;5.29;73.32;99537.23;1801327;78;21133;-71
2021/04/21 01:14:19;;;;;;;20.60;15.83;;;;;;;5.21;73.41;99534.32;1770080;80;21101;-71
2021/04/21 01:16:52;;;;;;;18.25;15.03;;;;;;;5.17;73.43;99541.56;1749626;81;22055;-72
2021/04/21 01:20:02;;;;;;;18.70;14.78;;;;;;;5.11;73.38;99536.28;1717518;81;21078;-73
2021/04/21 01:23:03;;;;;;;23.27;15.85;;;;;;;5.07;73.39;99540.06;1725587;81;21087;-71
2021/04/21 01:26:03;;;;;;;20.10;16.02;;;;;;;5.03;73.42;99544.33;1753092;81;21177;-71
2021/04/21 01:28:31;;;;;;;18.20;14.05;;;;;;;4.99;73.35;99539.76;1755957;81;21426;-71
2021/04/21 01:30:59;;;;;;;20.40;15.28;;;;;;;4.94;73.49;99537.12;1736979;81;21891;-71
2021/04/21 01:33:26;;;;;;;19.27;15.43;;;;;;;4.94;73.62;99534.02;1746655;81;21090;-71
2021/04/21 01:36:01;;;;;;;22.65;16.57;;;;;;;4.94;73.75;99536.64;1727576;81;21592;-71
2021/04/21 01:38:29;;;;;;;20.08;16.17;;;;;;;4.94;73.83;99531.41;1728302;81;21502;-71
2021/04/21 01:41:02;;;;;;;21.50;15.70;;;;;;;4.98;73.95;99540.70;1740948;81;21080;-72
2021/04/21 01:43:49;;;;;;;19.32;14.95;;;;;;;4.99;74.08;99542.84;1743860;81;23144;-72
2021/04/21 01:46:17;;;;;;;20.85;16.25;;;;;;;4.96;74.18;99539.98;1751756;81;21090;-71
2021/04/21 01:48:44;;;;;;;21.45;16.48;;;;;;;4.94;74.23;99541.88;1754212;81;21426;-71
2021/04/21 01:51:29;;;;;;;22.32;16.32;;;;;;;4.91;74.25;99543.37;1751458;81;21140;-71
2021/04/21 01:54:11;;;;;;;24.05;17.40;;;;;;;4.89;74.23;99545.27;1738128;81;21339;-71
2021/04/21 01:56:57;;;;;;;25.45;18.15;;;;;;;4.86;74.21;99548.94;1743140;81;22466;-71
2021/04/21 01:59:45;;;;;;;24.23;17.73;;;;;;;4.80;74.26;99549.35;1730160;81;21133;-70
2021/04/21 02:02:26;;;;;;;24.65;18.07;;;;;;;4.77;74.28;99548.73;1736330;81;21158;-71
2021/04/21 02:05:20;;;;;;;23.57;16.82;;;;;;;4.76;74.42;99553.61;1743065;82;22315;-71
2021/04/21 02:08:14;;;;;;;24.25;17.42;;;;;;;4.77;74.52;99553.97;1723200;82;21087;-71
2021/04/21 02:11:07;;;;;;;22.70;17.52;;;;;;;4.80;74.81;99552.44;1722366;82;21591;-70
2021/04/21 02:13:46;;;;;;;21.23;16.85;;;;;;;4.83;74.95;99543.09;1713173;82;21097;-72
2021/04/21 02:16:25;;;;;;;23.35;17.60;;;;;;;4.86;75.07;99552.03;1745185;81;21141;-71
2021/04/21 02:19:31;;;;;;;23.57;17.95;;;;;;;4.87;75.14;99550.61;1742841;81;21161;-71
2021/04/21 02:22:33;;;;;;;22.27;16.67;;;;;;;4.90;75.24;99550.86;1742365;81;21053;-71
2021/04/21 02:25:26;;;;;;;20.05;15.68;;;;;;;4.94;75.31;99554.13;1756659;81;22027;-70
2021/04/21 02:28:37;;;;;;;23.80;17.67;;;;;;;4.92;75.39;99555.98;1760021;81;22245;-70
2021/04/21 02:31:41;;;;;;;23.70;17.95;;;;;;;4.89;75.37;99564.42;1759279;81;21144;-70
2021/04/21 02:34:51;;;;;;;24.32;18.62;;;;;;;4.87;75.37;99564.17;1760625;81;21168;-70
2021/04/21 02:37:34;;;;;;;25.90;18.60;;;;;;;4.84;75.46;99566.53;1738912;81;21073;-70
2021/04/21 02:40:21;;;;;;;;;;;;;;;4.82;75.57;99561.02;1744758;81;22102;-71
2021/04/21 02:42:59;;;;;;;23.60;18.30;;;;;;;4.82;75.62;99567.55;1749650;81;20836;-71
2021/04/21 02:45:58;;;;;;;23.15;18.45;;;;;;;4.81;75.66;99569.81;1760374;81;21042;-71
2021/04/21 02:48:49;;;;;;;23.57;17.98;;;;;;;4.84;75.65;99578.30;1730562;81;21441;-72
2021/04/21 02:51:22;;;;;;;25.00;18.02;;;;;;;4.83;75.67;99582.34;1707611;82;21102;-69
2021/04/21 02:53:58;;;;;;;23.57;18.52;;;;;;;4.83;75.79;99593.64;1729870;83;21805;-69
2021/04/21 02:56:54;;;;;;;24.15;18.70;;;;;;;4.83;75.79;99593.64;1756850;81;21253;-69
2021/04/21 02:59:42;;;;;;;25.05;18.35;;;;;;;4.81;75.78;99590.73;1737630;81;21137;-69
2021/04/21 03:02:26;;;;;;;23.70;19.05;;;;;;;4.82;75.83;99588.48;1755157;81;21595;-70
2021/04/21 03:05:12;;;;;;;24.65;18.87;;;;;;;4.78;75.87;99584.42;1749174;81;21156;-70
2021/04/21 03:08:11;;;;;;;24.40;18.98;;;;;;;4.76;75.86;99587.61;1756105;81;22970;-70
2021/04/21 03:10:48;;;;;;;24.37;19.32;;;;;;;4.75;75.81;99587.25;1715265;81;21196;-70
2021/04/21 03:13:18;;;;;;;23.25;18.30;;;;;;;4.73;75.76;99591.72;1733666;81;21108;-70
2021/04/21 03:16:01;;;;;;;25.57;18.87;;;;;;;4.71;75.75;99592.30;1745656;81;21200;-69
2021/04/21 03:18:30;;;;;;;23.98;18.82;;;;;;;4.68;75.74;99595.14;1740070;81;21057;-69
2021/04/21 03:21:18;;;;;;;24.35;18.67;;;;;;;4.64;75.70;99598.91;1759135;81;21969;-70
2021/04/21 03:23:46;;;;;;;24.15;18.73;;;;;;;4.60;75.70;99593.87;1761370;81;21129;-70
2021/04/21 03:26:14;;;;;;;24.50;18.62;;;;;;;4.59;75.74;99602.66;1747511;80;21407;-69
2021/04/21 03:28:41;;;;;;;25.12;19.17;;;;;;;4.58;75.78;99604.07;1752234;80;21524;-70
2021/04/21 03:31:09;;;;;;;25.10;19.25;;;;;;;4.58;75.80;99606.22;1731894;81;21057;-70
2021/04/21 03:33:53;;;;;;;24.65;19.17;;;;;;;4.57;75.84;99616.31;1733574;81;22522;-70
2021/04/21 03:36:21;;;;;;;31.02;21.75;;;;;;;4.58;75.91;99621.08;1758390;81;21173;-70
2021/04/21 03:38:48;;;;;;;28.15;21.85;;;;;;;4.55;76.02;99628.66;1746130;80;21105;-69
2021/04/21 03:41:16;;;;;;;29.70;21.93;;;;;;;4.54;76.12;99637.45;1753433;80;21133;-71
2021/04/21 03:43:45;;;;;;;28.65;21.93;;;;;;;4.54;76.31;99638.75;1744905;80;21121;-71
2021/04/21 03:46:14;;;;;;;29.18;20.68;;;;;;;4.56;76.52;99643.87;1753819;80;22608;-70
2021/04/21 03:48:41;;;;;;;29.55;22.27;;;;;;;4.55;76.71;99643.05;1754360;80;21180;-71
2021/04/21 03:51:09;;;;;;;25.92;20.02;;;;;;;4.55;76.87;99643.05;1759303;81;21180;-74
2021/04/21 03:53:38;;;;;;;27.10;21.65;;;;;;;4.56;77.01;99643.87;1736883;81;21073;-72
2021/04/21 03:56:09;;;;;;;31.87;22.10;;;;;;;4.55;77.08;99639.12;1747027;81;21425;-73
2021/04/21 03:58:37;;;;;;;27.05;20.90;;;;;;;4.56;77.23;99642.10;1738699;81;22131;-71
2021/04/21 04:01:12;;;;;;;28.87;21.20;;;;;;;4.57;77.33;99639.85;1748513;81;21468;-72
2021/04/21 04:03:41;;;;;;;25.75;21.55;;;;;;;4.59;77.44;99647.59;1743355;81;21161;-72
2021/04/21 04:06:14;;;;;;;26.68;20.62;;;;;;;4.63;77.58;99652.97;1736168;81;21437;-74
2021/04/21 04:09:00;;;;;;;31.42;22.13;;;;;;;4.67;77.64;99654.94;1729669;81;21130;-72
2021/04/21 04:11:45;;;;;;;31.27;22.42;;;;;;;4.69;77.66;99660.42;1753114;80;22533;-74
2021/04/21 04:14:21;;;;;;;26.15;20.72;;;;;;;4.73;77.70;99661.91;1779689;79;21109;-73
2021/04/21 04:16:55;;;;;;;26.33;19.73;;;;;;;4.79;77.73;99664.10;1788082;77;21061;-71
2021/04/21 04:19:22;;;;;;;30.23;22.77;;;;;;;4.86;77.85;99675.01;1802239;77;21488;-72
2021/04/21 04:22:05;;;;;;;29.75;22.10;;;;;;;4.92;77.93;99676.36;1798716;79;21520;-70
2021/04/21 04:24:50;;;;;;;30.95;20.80;;;;;;;4.99;78.04;99675.01;1797734;77;22043;-72
2021/04/21 04:27:21;;;;;;;31.60;22.22;;;;;;;5.06;78.10;99679.73;1808652;77;21498;-71
2021/04/21 04:29:50;;;;;;;27.50;20.27;;;;;;;5.18;78.11;99689.84;1797104;79;21067;-72
2021/04/21 04:32:20;;;;;;;29.10;20.97;;;;;;;5.29;78.18;99682.55;1813845;79;21839;-71
2021/04/21 04:34:50;;;;;;;27.62;19.30;;;;;;;5.39;78.13;99691.45;1813660;79;21063;-70
2021/04/21 04:37:22;;;;;;;28.27;22.25;;;;;;;5.50;78.10;99691.58;1815868;79;21936;-71
2021/04/21 04:39:50;;;;;;;29.82;22.10;;;;;;;5.60;78.03;99691.30;1776073;80;21089;-70
2021/04/21 04:42:17;;;;;;;28.65;22.32;;;;;;;5.71;78.01;99690.08;1791756;78;21387;-72
2021/04/21 04:44:47;;;;;;;35.95;21.90;;;;;;;5.83;77.95;99687.53;1816765;78;21130;-71
2021/04/21 04:47:28;;;;;;;24.98;18.60;;;;;;;5.93;77.89;99692.52;1804192;78;21560;-71
2021/04/21 04:50:08;;;;;;;31.95;21.15;;;;;;;6.02;77.83;99704.49;1783723;80;22528;-70
2021/04/21 04:52:41;;;;;;;24.15;18.92;;;;;;;6.13;77.68;99705.03;1783686;80;21165;-71
2021/04/21 04:55:11;;;;;;;26.40;19.90;;;;;;;6.29;77.68;99707.41;1783426;80;21073;-72
2021/04/21 04:57:42;;;;;;;23.85;17.98;;;;;;;6.47;77.55;99710.00;1809016;79;21347;-72
2021/04/21 05:00:12;;;;;;;24.72;17.67;;;;;;;6.66;77.41;99717.81;1815829;78;21048;-71
2021/04/21 05:03:01;;;;;;;21.73;17.10;;;;;;;6.84;76.84;99717.29;1803524;79;22066;-72
2021/04/21 05:05:29;;;;;;;17.62;13.98;;;;;;;7.01;76.60;99716.03;1784160;79;21079;-71
2021/04/21 05:08:06;;;;;;;20.15;13.38;;;;;;;7.19;75.81;99716.45;1783620;80;21079;-71
2021/04/21 05:10:56;;;;;;;22.95;15.08;;;;;;;7.35;75.44;99722.21;1783671;80;21134;-72
2021/04/21 05:13:26;;;;;;;24.72;15.08;;;;;;;7.50;74.70;99714.09;1794960;79;21099;-72
2021/04/21 05:16:09;;;;;;;15.20;11.65;;;;;;;7.66;74.28;99722.48;1775396;79;22759;-72
2021/04/21 05:18:54;;;;;;;15.50;12.43;;;;;;;7.75;73.25;99722.59;1782429;79;21084;-72
2021/04/21 05:22:13;;;;;;;18.80;12.23;;;;;;;7.83;72.66;99723.31;1783806;80;21174;-71
2021/04/21 05:25:35;;;;;;;17.48;11.40;;;;;;;7.89;71.85;99732.50;1808440;79;21071;-72
2021/04/21 05:28:54;;;;;;;16.45;11.45;;;;;;;7.80;70.40;99731.42;1801318;78;21585;-71
2021/04/21 05:31:52;;;;;;;15.00;10.72;;;;;;;7.75;70.52;99733.11;1807770;79;22507;-72
2021/04/21 05:34:54;;;;;;;15.18;11.57;;;;;;;7.71;70.75;99731.66;1796830;79;21087;-72
2021/04/21 05:37:50;;;;;;;14.30;11.30;;;;;;;7.67;70.81;99735.49;1815718;79;21143;-72
2021/04/21 05:40:51;;;;;;;15.55;11.78;;;;;;;7.65;71.17;99738.73;1815670;79;21060;-72
2021/04/21 05:44:15;;;;;;;16.12;11.90;;;;;;;7.67;71.61;99741.23;1815754;79;21063;-72
2021/04/21 05:46:54;;;;;;;16.65;11.50;;;;;;;7.70;71.91;99747.55;1810971;79;21598;-73
2021/04/21 05:49:47;;;;;;;16.80;11.60;;;;;;;7.65;71.78;99751.03;1788572;79;21164;-72
2021/04/21 05:52:35;;;;;;;12.95;10.45;;;;;;;7.62;71.97;99752.08;1806418;79;21067;-72
2021/04/21 05:55:57;;;;;;;15.48;11.57;;;;;;;7.64;72.18;99745.42;1815737;79;21122;-72
2021/04/21 05:58:56;;;;;;;16.10;11.53;;;;;;;7.61;72.40;99764.87;1813709;79;21493;-71
2021/04/21 06:01:31;;;;;;;14.53;11.08;;;;;;;7.57;72.73;99754.72;1770952;78;22503;-73
2021/04/21 06:04:00;;;;;;;14.50;11.05;;;;;;;7.55;73.00;99766.67;1789667;79;21158;-71
2021/04/21 06:06:28;;;;;;;14.25;11.68;;;;;;;7.58;73.36;99767.73;1795754;78;21177;-72
2021/04/21 06:08:56;;;;;;;15.28;12.00;;;;;;;7.56;73.61;99765.72;1792012;79;21065;-72
2021/04/21 06:11:27;;;;;;;13.85;11.35;;;;;;;7.54;73.90;99778.62;1772842;79;21434;-73
2021/04/21 06:13:57;;;;;;;14.30;11.20;;;;;;;7.51;74.04;99777.52;1800398;79;22058;-73
2021/04/21 06:16:26;;;;;;;13.83;10.65;;;;;;;7.52;74.34;99775.24;1802292;79;21546;-72
2021/04/21 06:18:59;;;;;;;13.93;11.50;;;;;;;7.50;74.68;99786.36;1808143;79;21119;-72
2021/04/21 06:21:29;;;;;;;14.38;11.53;;;;;;;7.42;74.79;99786.93;1806803;79;21054;-71
2021/04/21 06:23:57;;;;;;;16.48;12.58;;;;;;;7.34;75.38;99790.16;1797050;78;21036;-72
2021/04/21 06:26:29;;;;;;;13.08;11.68;;;;;;;7.27;75.95;99791.56;1816004;78;23045;-72
2021/04/21 06:29:04;;;;;;;13.75;10.58;;;;;;;7.21;76.21;99795.12;1803968;79;21090;-72
2021/04/21 06:31:39;;;;;;;15.08;13.00;;;;;;;7.20;76.56;99804.79;1799997;79;21130;-72
2021/04/21 06:34:08;;;;;;;17.32;13.13;;;;;;;7.22;76.83;99805.98;1808471;79;21225;-75
2021/04/21 06:36:50;;;;;;;19.40;14.23;;;;;;;7.23;77.25;99804.55;1782396;80;21072;-71
2021/04/21 06:39:22;;;;;;;21.12;14.25;;;;;;;7.23;77.68;99812.42;1808119;79;22060;-70
2021/04/21 06:42:00;;;;;;;18.70;14.50;;;;;;;7.24;78.03;99806.70;1799318;79;21035;-71
2021/04/21 06:44:42;;;;;;;17.45;13.30;;;;;;;7.25;78.01;99811.86;1785698;79;21462;-69
2021/04/21 06:47:18;;;;;;;15.98;13.18;;;;;;;7.30;78.14;99808.88;1802893;79;21498;-69
2021/04/21 06:50:01;;;;;;;16.73;13.95;;;;;;;7.35;78.16;99810.22;1792909;79;21446;-72
2021/04/21 06:52:37;;;;;;;18.37;13.75;;;;;;;7.37;78.08;99808.78;1805398;79;22064;-71
2021/04/21 06:55:11;;;;;;;16.90;14.33;;;;;;;7.46;78.23;99817.30;1813034;79;21103;-71
2021/04/21 06:57:39;;;;;;;16.70;12.93;;;;;;;7.56;78.30;99821.38;1787804;79;21104;-71
2021/04/21 07:00:16;;;;;;;18.62;14.13;;;;;;;7.69;78.27;99825.58;1811640;79;21063;-71
2021/04/21 07:02:48;;;;;;;16.82;12.45;;;;;;;7.82;78.09;99824.66;1808054;77;21414;-69
2021/04/21 07:05:35;;;;;;;18.85;11.57;;;;;;;7.94;77.84;99823.23;1808924;78;21885;-71
2021/04/21 07:08:11;;;;;;;20.62;13.25;;;;;;;8.09;77.65;99822.98;1790406;78;21196;-72
2021/04/21 07:10:48;;;;;;;16.73;12.37;;;;;;;8.28;77.18;99820.59;1796113;78;21080;-73
2021/04/21 07:13:23;;;;;;;14.70;9.90;;;;;;;8.46;76.92;99827.06;1791044;78;21135;-72
2021/04/21 07:15:57;;;;;;;13.70;11.10;;;;;;;8.58;76.21;99825.24;1820702;77;21043;-71
2021/04/21 07:18:32;;;;;;;13.70;10.82;;;;;;;8.60;75.57;99832.56;1801593;78;22055;-72
2021/04/21 07:21:01;;;;;;;14.80;10.75;;;;;;;8.56;74.89;99833.27;1803702;78;21586;-71
2021/04/21 07:23:28;;;;;;;14.10;11.73;;;;;;;8.49;74.53;99836.05;1808604;78;21154;-72
2021/04/21 07:25:56;;;;;;;11.78;10.35;;;;;;;8.49;74.58;99836.50;1798247;78;21207;-72
2021/04/21 07:28:23;;;;;;;10.93;9.60;;;;;;;8.53;73.90;99837.95;1807586;77;21178;-71
2021/04/21 07:30:52;;;;;;;10.30;9.05;;;;;;;8.54;73.32;99834.36;1791898;78;22491;-71
2021/04/21 07:33:39;;;;;;;10.58;8.60;;;;;;;8.56;73.08;99840.33;1807155;77;21174;-72
2021/04/21 07:36:13;;;;;;;11.55;8.15;;;;;;;8.58;72.99;99844.51;1808548;78;21186;-70
2021/04/21 07:38:50;;;;;;;9.40;8.03;;;;;;;8.61;72.42;99853.98;1779063;78;21473;-70
2021/04/21 07:41:39;;;;;;;9.65;8.55;;;;;;;8.63;72.02;99860.44;1800806;78;21091;-69
2021/04/21 07:44:29;;;;;;;11.73;8.98;;;;;;;8.67;71.89;99867.11;1804097;78;22063;-72
2021/04/21 07:47:12;;;;;;;10.50;8.00;;;;;;;8.72;71.60;99867.12;1801889;78;21122;-73
2021/04/21 07:49:55;;;;;;;13.05;9.73;;;;;;;8.76;71.02;99867.22;1795309;78;21123;-74
2021/04/21 07:52:31;;;;;;;9.05;7.22;;;;;;;8.76;71.20;99867.70;1808120;78;21146;-73
2021/04/21 07:55:15;;;;;;;9.15;7.17;;;;;;;8.84;71.17;99867.45;1811466;78;21131;-76
2021/04/21 07:57:45;;;;;;;5.90;5.30;;;;;;;9.04;70.33;99865.00;1813776;78;21948;-74
2021/04/21 08:00:28;;;;;;;9.40;7.58;;;;;;;9.04;70.33;99865.00;1801243;78;21182;-74
2021/04/21 08:02:57;;;;;;;8.23;7.28;;;;;;;9.18;70.20;99869.52;1771256;80;21229;-72
2021/04/21 08:05:24;;;;;;;7.65;6.85;;;;;;;9.26;69.25;99864.08;1741739;82;21151;-74
2021/04/21 08:08:01;;;;;;;7.25;6.55;;;;;;;9.36;69.48;99859.27;1742022;81;21188;-73
2021/04/21 08:10:33;;;;;;;8.75;6.90;;;;;;;9.52;69.16;99860.62;1776696;80;22047;-73
2021/04/21 08:13:01;;;;;;;7.50;6.65;;;;;;;9.65;68.27;99867.85;1780239;79;21257;-73
2021/04/21 08:15:32;;;;;;;8.30;6.95;;;;;;;9.68;67.89;99859.22;1732819;81;21044;-76
2021/04/21 08:18:11;;;;;;;7.45;6.60;;;;;;;9.78;67.64;99857.97;1750143;81;21145;-72
2021/04/21 08:20:51;;;;;;;9.80;7.45;;;;;;;9.84;66.29;99866.66;1754815;80;21115;-72
2021/04/21 08:23:19;;;;;;;10.05;8.23;;;;;;;9.79;66.12;99866.72;1736869;81;22570;-71
2021/04/21 08:25:47;;;;;;;8.03;6.80;;;;;;;9.75;65.16;99862.19;1735916;81;21174;-71
2021/04/21 08:28:15;;;;;;;9.10;6.87;;;;;;;9.70;65.86;99862.56;1750120;81;21631;-75
2021/04/21 08:30:55;;;;;;;8.40;6.83;;;;;;;9.81;66.35;99870.05;1727412;81;21165;-73
2021/04/21 08:33:23;;;;;;;7.97;7.03;;;;;;;9.86;65.54;99856.01;1740437;81;21487;-72
2021/04/21 08:35:50;;;;;;;8.78;7.42;;;;;;;9.84;65.35;99865.83;1769889;80;21726;-72
2021/04/21 08:38:17;;;;;;;8.00;7.20;;;;;;;9.81;65.24;99864.78;1767718;80;21071;-73
2021/04/21 08:40:45;;;;;;;7.70;6.90;;;;;;;9.78;65.30;99865.05;1744344;81;21578;-74
2021/04/21 08:43:15;;;;;;;7.97;6.97;;;;;;;9.74;65.18;99868.41;1705141;81;21180;-74
2021/04/21 08:45:42;;;;;;;7.78;6.97;;;;;;;9.67;65.10;99864.15;1752648;81;21156;-72
2021/04/21 08:48:10;;;;;;;8.98;6.72;;;;;;;9.71;65.36;99868.19;1748378;81;21915;-74
2021/04/21 08:50:38;;;;;;;8.98;7.40;;;;;;;9.87;65.42;99859.83;1754733;81;21117;-74
2021/04/21 08:53:08;;;;;;;8.53;6.55;;;;;;;10.02;65.30;99861.63;1776271;80;21190;-78
2021/04/21 08:55:37;;;;;;;8.03;6.03;;;;;;;10.14;64.69;99863.25;1740915;82;21135;-77
2021/04/21 08:58:04;;;;;;;5.87;5.28;;;;;;;10.26;64.59;99860.06;1749615;81;21441;-71
2021/04/21 09:00:32;;;;;;;6.00;5.40;;;;;;;10.43;63.77;99854.66;1739032;82;22499;-72
2021/04/21 09:03:00;;;;;;;7.33;6.47;;;;;;;10.63;63.08;99853.74;1725826;81;21108;-72
2021/04/21 09:05:29;;;;;;;6.80;5.90;;;;;;;10.81;62.44;99850.80;1714832;82;21092;-72
2021/04/21 09:07:57;;;;;;;6.72;5.87;;;;;;;10.95;62.11;99852.69;1736564;81;21137;-71
2021/04/21 09:10:25;;;;;;;8.08;5.80;;;;;;;11.03;62.38;99856.32;1747298;81;21074;-71
2021/04/21 09:12:52;;;;;;;6.75;6.05;;;;;;;11.05;61.12;99864.11;1737354;80;22512;-73
2021/04/21 09:15:19;;;;;;;11.35;6.17;;;;;;;10.92;61.04;99860.90;1758712;80;21095;-72
2021/04/21 09:17:50;;;;;;;14.45;6.62;;;;;;;10.85;61.56;99874.64;1687838;82;21129;-74
2021/04/21 09:20:21;;;;;;;25.60;6.83;;;;;;;10.82;61.80;99873.60;1731242;82;21073;-73
2021/04/21 09:23:18;;;;;;;6.55;5.80;;;;;;;10.84;62.06;99874.30;1730326;83;21054;-73
2021/04/21 09:25:51;;;;;;;16.65;6.35;;;;;;;10.67;61.86;99878.90;1739421;81;22070;-73
2021/04/21 09:28:22;;;;;;;9.03;5.03;;;;;;;10.51;62.29;99891.77;1749585;81;21086;-74
2021/04/21 09:30:57;;;;;;;6.10;5.03;;;;;;;10.35;63.52;99898.03;1739787;81;21160;-74
2021/04/21 09:33:29;;;;;;;6.22;5.03;;;;;;;10.12;64.69;99886.27;1733486;81;21650;-73
2021/04/21 09:35:57;;;;;;;6.28;4.97;;;;;;;9.82;65.39;99890.19;1719736;82;21141;-73
2021/04/21 09:41:16;;;;;;;7.20;5.03;;;;;;;9.63;66.60;99885.13;1860616;76;22263;-70
2021/04/21 09:43:44;;;;;;;7.05;5.85;;;;;;;9.61;66.08;99891.02;1806173;78;21474;-73
2021/04/21 09:46:19;;;;;;;15.55;6.25;;;;;;;9.66;66.83;99891.97;1806430;78;23352;-72
2021/04/21 09:48:48;;;;;;;7.05;6.28;;;;;;;9.75;67.74;99882.80;1778408;79;21558;-73
2021/04/21 09:51:18;;;;;;;8.93;6.55;;;;;;;9.85;67.56;99884.67;1808479;78;21143;-73
2021/04/21 09:53:48;;;;;;;9.70;6.70;;;;;;;9.92;68.24;99880.53;1813246;77;21145;-73
2021/04/21 09:56:25;;;;;;;7.28;6.58;;;;;;;9.93;68.11;99887.47;1800054;79;21195;-70
2021/04/21 09:59:00;;;;;;;6.50;5.80;;;;;;;9.99;68.23;99890.92;1776262;79;22986;-73
2021/04/21 10:01:36;;;;;;;9.28;6.42;;;;;;;10.03;67.92;99884.41;1776550;80;21146;-73
2021/04/21 10:04:12;;;;;;;6.67;5.72;;;;;;;10.15;68.84;99886.03;1798547;78;21447;-74
2021/04/21 10:06:50;;;;;;;5.30;4.65;;;;;;;10.45;68.44;99885.23;1809577;78;21105;-74
2021/04/21 10:09:35;;;;;;;5.17;4.30;;;;;;;10.74;67.54;99878.72;1811843;77;21148;-72
2021/04/21 10:12:21;;;;;;;5.60;4.15;;;;;;;10.92;66.39;99882.03;1809169;79;22034;-72
2021/04/21 10:15:10;;;;;;;5.05;4.40;;;;;;;11.03;64.98;99887.20;1810553;79;21091;-72
2021/04/21 10:17:42;;;;;;;6.72;4.40;;;;;;;11.27;63.95;99878.37;1797052;79;21155;-73
2021/04/21 10:20:18;;;;;;;5.62;4.28;;;;;;;11.60;64.07;99880.28;1804861;78;21123;-71
2021/04/21 10:22:46;;;;;;;6.92;4.70;;;;;;;11.83;62.19;99875.53;1808369;78;21202;-73
2021/04/21 10:25:15;;;;;;;4.37;3.52;;;;;;;11.98;61.01;99879.42;1779381;79;22064;-71
2021/04/21 10:27:43;;;;;;;7.40;3.95;;;;;;;12.15;59.70;99878.66;1808176;79;21111;-75
2021/04/21 10:30:13;;;;;;;8.48;6.47;;;;;;;12.27;58.03;99883.31;1800127;79;21083;-71
2021/04/21 10:32:41;;;;;;;5.05;4.03;;;;;;;12.32;57.31;99882.38;1777245;79;21057;-71
2021/04/21 10:35:09;;;;;;;4.35;3.30;;;;;;;12.32;57.01;99886.34;1800861;79;21091;-73
2021/04/21 10:37:38;;;;;;;4.30;3.45;;;;;;;12.30;56.88;99881.69;1808154;79;21880;-72
2021/04/21 10:40:07;;;;;;;3.22;2.92;;;;;;;12.28;56.57;99888.95;1795265;79;21254;-74
2021/04/21 10:42:51;;;;;;;3.37;2.92;;;;;;;12.19;55.06;99888.48;1809679;78;21059;-72
2021/04/21 10:45:22;;;;;;;3.45;2.65;;;;;;;12.09;54.69;99889.00;1802010;79;21132;-72
2021/04/21 10:47:52;;;;;;;3.83;2.98;;;;;;;11.95;53.79;99888.45;1806005;78;21173;-71
2021/04/21 10:50:45;;;;;;;4.08;3.20;;;;;;;11.89;54.31;99894.34;1806744;79;21133;-71
2021/04/21 10:53:33;;;;;;;4.33;3.02;;;;;;;11.88;53.66;99903.25;1804471;78;21094;-74
2021/04/21 10:56:24;;;;;;;3.95;2.87;;;;;;;11.83;53.18;99894.06;1809548;79;21401;-72
2021/04/21 10:58:54;;;;;;;3.45;2.35;;;;;;;11.81;53.71;99905.28;1808526;79;21214;-70
2021/04/21 11:01:34;;;;;;;3.00;2.70;;;;;;;11.74;53.43;99908.94;1798276;79;21050;-70
2021/04/21 11:04:05;;;;;;;3.95;2.33;;;;;;;11.63;53.36;99908.59;1809295;79;22957;-70
2021/04/21 11:09:35;;;;;;;5.42;2.98;;;;;;;11.75;55.33;99907.95;1887553;76;22681;-70
2021/04/21 11:12:03;;;;;;;3.00;2.70;;;;;;;11.92;55.72;99910.41;1792805;79;21181;-72
2021/04/21 11:14:49;;;;;;;4.78;3.02;;;;;;;12.09;53.60;99915.47;1823502;77;22047;-70
2021/04/21 11:17:16;;;;;;;5.10;3.10;;;;;;;12.10;53.13;99912.68;1845240;77;21065;-72
2021/04/21 11:19:45;;;;;;;4.60;3.10;;;;;;;12.17;53.32;99907.17;1848771;77;21125;-72
2021/04/21 11:22:19;;;;;;;3.35;2.90;;;;;;;12.21;52.38;99907.70;1826377;77;21285;-72
2021/04/21 11:25:23;;;;;;;4.37;3.22;;;;;;;12.19;50.82;99913.15;1830825;77;21081;-70
2021/04/21 11:27:51;;;;;;;7.85;3.58;;;;;;;12.07;50.69;99920.08;1831444;77;22523;-71
2021/04/21 11:30:37;;;;;;;3.40;3.00;;;;;;;11.91;51.19;99919.33;1843909;77;21053;-70
2021/04/21 11:33:04;;;;;;;3.35;2.92;;;;;;;11.79;50.33;99927.05;1819585;77;21141;-70
2021/04/21 11:35:34;;;;;;;4.00;3.60;;;;;;;11.63;52.40;99949.59;1830307;77;21142;-72
2021/04/21 11:38:02;;;;;;;6.30;3.85;;;;;;;11.41;56.24;99949.38;1842328;77;21122;-70
2021/04/21 11:40:32;;;;;;;7.10;5.17;;;;;;;10.95;58.89;99959.70;1837044;77;21881;-70
2021/04/21 11:43:16;;;;;;;5.12;4.28;;;;;;;10.55;59.92;99971.92;1838739;77;21087;-69
2021/04/21 11:45:45;;;;;;;4.75;3.65;;;;;;;10.17;60.85;99972.98;1830445;77;21154;-70
2021/04/21 11:48:18;;;;;;;5.22;3.35;;;;;;;9.90;61.67;99978.75;1831301;77;21564;-71
2021/04/21 11:50:48;;;;;;;4.90;4.22;;;;;;;9.73;62.22;99959.88;1828665;77;21142;-70
2021/04/21 11:53:22;;;;;;;4.70;3.55;;;;;;;9.60;62.71;99969.77;1817008;77;22051;-72
2021/04/21 11:55:55;;;;;;;5.30;3.95;;;;;;;9.56;62.87;99969.67;1793951;79;21470;-70
2021/04/21 11:58:37;;;;;;;4.80;4.12;;;;;;;9.67;64.24;99968.79;1838878;78;21145;-73
2021/04/21 12:01:07;;;;;;;4.05;3.50;;;;;;;9.91;64.76;99956.68;1841361;77;21038;-72
2021/04/21 12:03:44;;;;;;;3.72;3.35;;;;;;;10.19;64.78;99959.17;1803313;77;21085;-72
2021/04/21 12:06:16;;;;;;;3.50;3.00;;;;;;;10.48;63.76;99954.92;1831155;77;21149;-72
2021/04/21 12:08:51;;;;;;;3.10;2.80;;;;;;;10.75;62.23;99953.52;1851394;77;21085;-74
2021/04/21 12:11:24;;;;;;;3.25;2.87;;;;;;;10.95;62.24;99949.97;1836165;77;21058;-73
2021/04/21 12:13:52;;;;;;;4.45;2.98;;;;;;;11.21;61.03;99954.78;1820216;78;21053;-72
2021/04/21 12:16:23;;;;;;;2.90;2.50;;;;;;;11.52;59.91;99948.41;1844203;77;21054;-72
2021/04/21 12:18:52;;;;;;;3.60;3.00;;;;;;;11.90;58.01;99951.58;1838641;77;21817;-73
2021/04/21 12:21:27;;;;;;;2.58;2.33;;;;;;;12.35;56.65;99945.63;1824923;77;21085;-71